createdAt,value
2016-04-05T00:00:03.152Z,75.18
2016-04-05T00:01:03.171Z,75.47
2016-04-05T00:02:03.157Z,75.47
2016-04-05T00:03:03.160Z,75.18
2016-04-05T00:04:03.163Z,75.15
2016-04-05T00:05:03.166Z,75.28
2016-04-05T00:06:03.152Z,75.57
2016-04-05T00:07:03.172Z,75.47
2016-04-05T00:08:03.174Z,75.53
2016-04-05T00:09:03.161Z,75.43
2016-04-05T00:10:03.163Z,75.24
2016-04-05T00:11:03.166Z,75.18
2016-04-05T00:12:03.185Z,75.18
2016-04-05T00:13:03.187Z,75.34
2016-04-05T00:14:03.159Z,75.15
2016-04-05T00:15:03.176Z,75.34
2016-04-05T00:16:03.179Z,75.81
2016-04-05T00:17:03.182Z,75.53
2016-04-05T00:18:03.169Z,75.34
2016-04-05T00:19:03.173Z,75.43
2016-04-05T00:20:03.175Z,75.34
2016-04-05T00:21:03.178Z,76.1
2016-04-05T00:22:03.181Z,76.01
2016-04-05T00:23:03.183Z,76.01
2016-04-05T00:24:03.186Z,75.91
2016-04-05T00:25:03.172Z,76.01
2016-04-05T00:26:03.175Z,75.91
2016-04-05T00:27:03.162Z,75.81
2016-04-05T00:28:03.181Z,76.39
2016-04-05T00:29:03.184Z,76.39
2016-04-05T00:30:03.202Z,76.2
2016-04-05T00:31:03.189Z,76.01
2016-04-05T00:32:03.192Z,76.29
2016-04-05T00:33:03.179Z,76.1
2016-04-05T00:34:03.181Z,75.81
2016-04-05T00:35:03.184Z,76.1
2016-04-05T00:36:03.202Z,75.05
2016-04-05T00:37:03.205Z,75.34
2016-04-05T00:38:03.191Z,75.34
2016-04-05T00:39:03.179Z,75.34
2016-04-05T00:40:03.197Z,75.43
2016-04-05T00:41:03.200Z,75.43
2016-04-05T00:42:03.203Z,75.53
2016-04-05T00:43:03.190Z,75.53
2016-04-05T00:44:03.193Z,75.53
2016-04-05T00:45:03.226Z,75.43
2016-04-05T00:46:03.213Z,75.53
2016-04-05T00:47:03.185Z,75.43
2016-04-05T00:48:03.203Z,76.01
2016-04-05T00:49:03.190Z,76.1
2016-04-05T00:50:03.208Z,76.2
2016-04-05T00:51:03.195Z,76.01
2016-04-05T00:52:03.214Z,75.91
2016-04-05T00:53:03.216Z,76.1
2016-04-05T00:54:03.204Z,76.39
2016-04-05T00:55:03.206Z,76.57
2016-04-05T00:56:03.209Z,76.2
2016-04-05T00:57:03.212Z,76.48
2016-04-05T00:58:03.199Z,76.57
2016-04-05T00:59:03.186Z,76.86
2016-04-05T01:00:03.219Z,76.96
2016-04-05T01:01:03.222Z,77.15
2016-04-05T01:02:03.194Z,77.44
2016-04-05T01:03:03.213Z,77.62
2016-04-05T01:04:03.216Z,78.01
2016-04-05T01:05:03.234Z,77.72
2016-04-05T01:06:03.205Z,78.58
2016-04-05T01:07:03.208Z,78.01
2016-04-05T01:08:03.210Z,78.2
2016-04-05T01:09:03.197Z,78.06
2016-04-05T01:10:03.216Z,77.91
2016-04-05T01:11:03.218Z,78.25
2016-04-05T01:12:03.221Z,78.44
2016-04-05T01:13:03.207Z,77.97
2016-04-05T01:14:03.226Z,78.44
2016-04-05T01:15:03.213Z,78.64
2016-04-05T01:16:03.231Z,78.35
2016-04-05T01:17:03.234Z,78.92
2016-04-05T01:18:03.221Z,79.4
2016-04-05T01:19:03.240Z,79.3
2016-04-05T01:20:03.243Z,79.78
2016-04-05T01:21:03.214Z,79.3
2016-04-05T01:22:03.232Z,79.4
2016-04-05T01:23:03.234Z,79.49
2016-04-05T01:24:03.237Z,79.3
2016-04-05T01:25:03.225Z,79.21
2016-04-05T01:26:03.211Z,79.49
2016-04-05T01:27:03.214Z,79.68
2016-04-05T01:28:03.233Z,79.88
2016-04-05T01:29:03.219Z,79.88
2016-04-05T01:30:03.222Z,79.68
2016-04-05T01:31:03.241Z,80.07
2016-04-05T01:32:03.228Z,80.35
2016-04-05T01:33:03.231Z,80.54
2016-04-05T01:34:03.249Z,80.54
2016-04-05T01:35:03.252Z,80.5
2016-04-05T01:36:03.222Z,80.79
2016-04-05T01:37:03.225Z,80.98
2016-04-05T01:38:03.244Z,81.55
2016-04-05T01:39:03.230Z,81.36
2016-04-05T01:40:03.234Z,81.36
2016-04-05T01:41:03.252Z,81.65
2016-04-05T01:42:03.239Z,81.55
2016-04-05T01:43:03.227Z,81.55
2016-04-05T01:44:03.244Z,81.93
2016-04-05T01:45:03.232Z,81.93
2016-04-05T01:46:03.271Z,82.03
2016-04-05T01:47:03.233Z,81.93
2016-04-05T01:48:03.235Z,81.65
2016-04-05T01:49:03.253Z,81.55
2016-04-05T01:50:03.232Z,81.84
2016-04-05T01:51:03.234Z,81.55
2016-04-05T01:52:03.253Z,82.03
2016-04-05T01:53:03.256Z,82.31
2016-04-05T01:54:03.242Z,82.31
2016-04-05T01:55:03.230Z,82.12
2016-04-05T01:56:03.232Z,81.84
2016-04-05T01:57:03.235Z,82.21
2016-04-05T01:58:03.222Z,82.41
2016-04-05T01:59:03.225Z,82.31
2016-04-05T02:00:03.306Z,82.31
2016-04-05T02:01:03.231Z,82.21
2016-04-05T02:02:03.233Z,82.5
2016-04-05T02:03:03.251Z,82.5
2016-04-05T02:04:03.083Z,82.5
2016-04-05T02:05:03.226Z,82.03
2016-04-05T02:06:03.229Z,82.03
2016-04-05T02:07:03.231Z,81.93
2016-04-05T02:08:03.255Z,82.31
2016-04-05T02:09:03.242Z,82.5
2016-04-05T02:10:03.244Z,82.21
2016-04-05T02:11:03.247Z,82.6
2016-04-05T02:12:03.233Z,82.41
2016-04-05T02:13:03.221Z,82.21
2016-04-05T02:14:03.255Z,82.31
2016-04-05T02:15:03.241Z,82.12
2016-04-05T02:16:03.244Z,82.31
2016-04-05T02:17:03.246Z,82.5
2016-04-05T02:18:03.234Z,82.79
2016-04-05T02:19:03.237Z,82.69
2016-04-05T02:20:03.240Z,82.89
2016-04-05T02:21:03.243Z,83.07
2016-04-05T02:22:03.260Z,83.07
2016-04-05T02:23:03.232Z,82.98
2016-04-05T02:24:03.251Z,82.69
2016-04-05T02:25:03.237Z,82.89
2016-04-05T02:26:03.225Z,82.6
2016-04-05T02:27:03.227Z,83.07
2016-04-05T02:28:03.214Z,82.89
2016-04-05T02:29:03.264Z,82.89
2016-04-05T02:30:03.219Z,82.69
2016-04-05T02:31:03.239Z,82.79
2016-04-05T02:32:03.225Z,82.79
2016-04-05T02:33:03.244Z,82.6
2016-04-05T02:34:03.230Z,82.79
2016-04-05T02:35:03.264Z,82.98
2016-04-05T02:36:03.236Z,82.6
2016-04-05T02:37:03.223Z,82.89
2016-04-05T02:38:03.257Z,82.69
2016-04-05T02:39:03.228Z,82.5
2016-04-05T02:40:03.230Z,83.55
2016-04-05T02:41:03.233Z,83.55
2016-04-05T02:42:03.252Z,83.93
2016-04-05T02:43:03.223Z,84.5
2016-04-05T02:44:03.242Z,83.98
2016-04-05T02:45:03.228Z,84.56
2016-04-05T02:46:03.218Z,84.41
2016-04-05T02:47:03.208Z,84.17
2016-04-05T02:48:03.182Z,84.36
2016-04-05T02:49:03.188Z,84.17
2016-04-05T02:50:03.178Z,84.36
2016-04-05T02:51:03.161Z,84.65
2016-04-05T02:52:03.159Z,84.27
2016-04-05T02:53:03.157Z,84.27
2016-04-05T02:54:03.155Z,83.98
2016-04-05T02:55:03.154Z,84.6
2016-04-05T02:56:03.171Z,84.31
2016-04-05T02:57:03.140Z,84.46
2016-04-05T02:58:03.141Z,84.6
2016-04-05T02:59:03.142Z,83.74
2016-04-05T03:00:03.159Z,84.03
2016-04-05T03:01:03.145Z,84.22
2016-04-05T03:02:03.132Z,83.65
2016-04-05T03:03:03.165Z,84.12
2016-04-05T03:04:03.167Z,83.84
2016-04-05T03:05:03.169Z,84.03
2016-04-05T03:06:03.141Z,83.93
2016-04-05T03:07:03.158Z,83.84
2016-04-05T03:08:03.130Z,83.74
2016-04-05T03:09:03.133Z,83.84
2016-04-05T03:10:03.136Z,83.65
2016-04-05T03:11:03.139Z,83.74
2016-04-05T03:12:03.141Z,83.45
2016-04-05T03:13:03.144Z,83.26
2016-04-05T03:14:03.147Z,83.26
2016-04-05T03:15:03.180Z,83.45
2016-04-05T03:16:03.183Z,83.36
2016-04-05T03:17:03.140Z,83.36
2016-04-05T03:18:03.157Z,83.26
2016-04-05T03:19:03.145Z,83.45
2016-04-05T03:20:03.131Z,83.17
2016-04-05T03:21:03.150Z,83.36
2016-04-05T03:22:03.137Z,83.45
2016-04-05T03:23:03.156Z,83.93
2016-04-05T03:24:03.142Z,83.93
2016-04-05T03:25:03.145Z,83.65
2016-04-05T03:26:03.148Z,83.84
2016-04-05T03:27:03.135Z,84.41
2016-04-05T03:28:03.153Z,84.12
2016-04-05T03:29:03.172Z,84.03
2016-04-05T03:30:03.159Z,84.31
2016-04-05T03:31:03.146Z,84.5
2016-04-05T03:32:03.134Z,84.5
2016-04-05T03:33:03.136Z,85.08
2016-04-05T03:34:03.154Z,84.41
2016-04-05T03:35:03.142Z,84.6
2016-04-05T03:36:03.141Z,84.41
2016-04-05T03:37:03.144Z,84.22
2016-04-05T03:38:03.161Z,84.22
2016-04-05T03:39:03.150Z,84.41
2016-04-05T03:40:03.152Z,84.31
2016-04-05T03:41:03.139Z,84.41
2016-04-05T03:42:03.141Z,84.41
2016-04-05T03:43:03.144Z,84.6
2016-04-05T03:44:03.147Z,83.84
2016-04-05T03:45:03.213Z,83.93
2016-04-05T03:46:03.168Z,84.03
2016-04-05T03:47:03.140Z,84.03
2016-04-05T03:48:03.127Z,84.22
2016-04-05T03:49:03.130Z,84.22
2016-04-05T03:50:03.132Z,83.88
2016-04-05T03:51:03.151Z,84.03
2016-04-05T03:52:03.137Z,83.59
2016-04-05T03:53:03.156Z,83.31
2016-04-05T03:54:03.127Z,83.4
2016-04-05T03:55:03.146Z,83.21
2016-04-05T03:56:03.165Z,82.73
2016-04-05T03:57:03.135Z,82.83
2016-04-05T03:58:03.154Z,82.64
2016-04-05T03:59:03.140Z,82.35
2016-04-05T04:00:03.237Z,82.35
2016-04-05T04:01:03.130Z,82.45
2016-04-05T04:02:03.148Z,82.17
2016-04-05T04:03:03.151Z,81.49
2016-04-05T04:04:03.138Z,81.49
2016-04-05T04:05:03.141Z,81.49
2016-04-05T04:06:03.175Z,81.49
2016-04-05T04:07:03.147Z,81.49
2016-04-05T04:08:03.134Z,81.68
2016-04-05T04:09:03.152Z,81.59
2016-04-05T04:10:03.139Z,81.49
2016-04-05T04:11:03.142Z,81.49
2016-04-05T04:12:03.145Z,81.49
2016-04-05T04:13:03.163Z,82.17
2016-04-05T04:14:03.150Z,81.88
2016-04-05T04:15:03.199Z,81.68
2016-04-05T04:16:03.139Z,82.07
2016-04-05T04:17:03.142Z,82.45
2016-04-05T04:18:03.144Z,82.17
2016-04-05T04:19:03.163Z,82.35
2016-04-05T04:20:03.150Z,82.26
2016-04-05T04:21:03.137Z,82.35
2016-04-05T04:22:03.155Z,82.26
2016-04-05T04:23:03.157Z,82.35
2016-04-05T04:24:03.145Z,82.07
2016-04-05T04:25:03.163Z,82.35
2016-04-05T04:26:03.135Z,82.26
2016-04-05T04:27:03.169Z,82.17
2016-04-05T04:28:03.156Z,81.97
2016-04-05T04:29:03.159Z,82.26
2016-04-05T04:30:03.145Z,82.17
2016-04-05T04:31:03.148Z,81.88
2016-04-05T04:32:03.151Z,82.07
2016-04-05T04:33:03.154Z,82.64
2016-04-05T04:34:03.157Z,82.45
2016-04-05T04:35:03.144Z,82.17
2016-04-05T04:36:03.146Z,82.54
2016-04-05T04:37:03.165Z,83.12
2016-04-05T04:38:03.167Z,82.83
2016-04-05T04:39:03.155Z,82.92
2016-04-05T04:40:03.158Z,82.54
2016-04-05T04:41:03.144Z,83.12
2016-04-05T04:42:03.163Z,82.64
2016-04-05T04:43:03.150Z,82.73
2016-04-05T04:44:03.152Z,82.64
2016-04-05T04:45:03.171Z,82.92
2016-04-05T04:46:03.174Z,82.92
2016-04-05T04:47:03.161Z,83.02
2016-04-05T04:48:03.147Z,82.92
2016-04-05T04:49:03.166Z,82.73
2016-04-05T04:50:03.152Z,82.83
2016-04-05T04:51:03.155Z,83.21
2016-04-05T04:52:03.143Z,82.73
2016-04-05T04:53:03.160Z,82.45
2016-04-05T04:54:03.164Z,83.69
2016-04-05T04:55:03.166Z,83.59
2016-04-05T04:56:03.168Z,83.31
2016-04-05T04:57:03.157Z,83.21
2016-04-05T04:58:03.190Z,83.4
2016-04-05T04:59:03.162Z,83.5
2016-04-05T05:00:03.164Z,83.4
2016-04-05T05:01:03.151Z,83.5
2016-04-05T05:02:03.154Z,83.21
2016-04-05T05:03:03.156Z,83.59
2016-04-05T05:04:03.159Z,83.59
2016-04-05T05:05:03.162Z,83.59
2016-04-05T05:06:03.148Z,83.5
2016-04-05T05:07:03.167Z,83.5
2016-04-05T05:08:03.154Z,83.5
2016-04-05T05:09:03.173Z,83.59
2016-04-05T05:10:03.159Z,83.31
2016-04-05T05:11:03.162Z,83.4
2016-04-05T05:12:03.181Z,83.4
2016-04-05T05:13:03.152Z,83.4
2016-04-05T05:14:03.155Z,83.59
2016-04-05T05:15:03.173Z,83.65
2016-04-05T05:16:03.161Z,83.55
2016-04-05T05:17:03.178Z,83.97
2016-04-05T05:18:03.165Z,83.93
2016-04-05T05:19:03.169Z,84.31
2016-04-05T05:20:03.171Z,83.93
2016-04-05T05:21:03.157Z,83.84
2016-04-05T05:22:03.161Z,83.74
2016-04-05T05:23:03.163Z,83.84
2016-04-05T05:24:03.166Z,84.22
2016-04-05T05:25:03.169Z,83.93
2016-04-05T05:26:03.171Z,83.93
2016-04-05T05:27:03.174Z,83.74
2016-04-05T05:28:03.177Z,84.03
2016-04-05T05:29:03.165Z,83.97
2016-04-05T05:30:03.167Z,83.93
2016-04-05T05:31:03.154Z,84.22
2016-04-05T05:32:03.156Z,83.59
2016-04-05T05:33:03.190Z,83.59
2016-04-05T05:34:03.146Z,83.59
2016-04-05T05:35:03.008Z,83.02
2016-04-05T05:36:03.183Z,82.54
2016-04-05T05:37:03.170Z,81.97
2016-04-05T05:38:03.188Z,80.96
2016-04-05T05:39:03.176Z,80.49
2016-04-05T05:40:03.194Z,78.96
2016-04-05T05:41:03.180Z,77.57
2016-04-05T05:42:03.184Z,76.9
2016-04-05T05:43:03.186Z,75.32
2016-04-05T05:44:03.189Z,75.22
2016-04-05T05:45:03.192Z,74.27
2016-04-05T05:46:03.178Z,73.73
2016-04-05T05:47:03.181Z,73.54
2016-04-05T05:48:03.199Z,73.16
2016-04-05T05:49:03.186Z,74.11
2016-04-05T05:50:03.188Z,74.37
2016-04-05T05:51:03.191Z,74.55
2016-04-05T05:52:03.194Z,74.65
2016-04-05T05:53:03.182Z,74.93
2016-04-05T05:54:03.200Z,75.13
2016-04-05T05:55:03.218Z,75.22
2016-04-05T05:56:03.205Z,74.74
2016-04-05T05:57:03.193Z,74.74
2016-04-05T05:58:03.195Z,75.03
2016-04-05T05:59:03.198Z,75.13
2016-04-05T06:00:03.201Z,75.42
2016-04-05T06:01:03.204Z,75.32
2016-04-05T06:02:03.206Z,75.32
2016-04-05T06:03:03.208Z,75.42
2016-04-05T06:04:03.227Z,75.13
2016-04-05T06:05:03.229Z,75.22
2016-04-05T06:06:03.216Z,75.22
2016-04-05T06:07:03.204Z,75.32
2016-04-05T06:08:03.222Z,75.51
2016-04-05T06:09:03.240Z,75.32
2016-04-05T06:10:03.228Z,75.6
2016-04-05T06:11:03.214Z,75.42
2016-04-05T06:12:03.217Z,75.42
2016-04-05T06:13:03.220Z,75.32
2016-04-05T06:14:03.222Z,75.22
2016-04-05T06:15:03.225Z,75.6
2016-04-05T06:16:03.228Z,75.6
2016-04-05T06:17:03.230Z,75.7
2016-04-05T06:18:03.233Z,75.51
2016-04-05T06:19:03.252Z,75.32
2016-04-05T06:20:03.254Z,75.42
2016-04-05T06:21:03.241Z,75.26
2016-04-05T06:22:03.244Z,75.45
2016-04-05T06:23:03.247Z,75.35
2016-04-05T06:24:03.250Z,74.88
2016-04-05T06:25:03.252Z,75.26
2016-04-05T06:26:03.238Z,74.59
2016-04-05T06:27:03.274Z,74.3
2016-04-05T06:28:03.260Z,74.21
2016-04-05T06:29:03.262Z,74.11
2016-04-05T06:30:03.266Z,73.44
2016-04-05T06:31:03.268Z,73.54
2016-04-05T06:32:03.271Z,73.63
2016-04-05T06:33:03.273Z,72.58
2016-04-05T06:34:03.276Z,71.38
2016-04-05T06:35:03.263Z,70.36
2016-04-05T06:36:03.265Z,69.41
2016-04-05T06:37:03.268Z,67.63
2016-04-05T06:38:03.303Z,65.65
2016-04-05T06:39:03.290Z,64.12
2016-04-05T06:40:03.292Z,63.96
2016-04-05T06:41:03.139Z,62.52
2016-04-05T06:42:03.298Z,61.6
2016-04-05T06:43:03.316Z,60.76
2016-04-05T06:44:03.319Z,59.13
2016-04-05T06:45:03.369Z,57.53
2016-04-05T06:46:03.309Z,55.07
2016-04-05T06:47:03.358Z,53.85
2016-04-05T06:48:03.329Z,53.11
2016-04-05T06:49:03.348Z,53.3
2016-04-05T06:50:03.335Z,54.23
2016-04-05T06:51:03.338Z,54.68
2016-04-05T06:52:03.356Z,54.88
2016-04-05T06:53:03.343Z,54.58
2016-04-05T06:54:03.361Z,54.88
2016-04-05T06:55:03.364Z,55.16
2016-04-05T06:56:03.382Z,55.26
2016-04-05T06:57:03.369Z,56.02
2016-04-05T06:58:03.388Z,55.74
2016-04-05T06:59:03.390Z,56.22
2016-04-05T07:00:03.393Z,56.02
2016-04-05T07:01:03.427Z,56.22
2016-04-05T07:02:03.429Z,56.02
2016-04-05T07:03:03.417Z,56.22
2016-04-05T07:04:03.420Z,56.41
2016-04-05T07:05:03.422Z,55.83
2016-04-05T07:06:03.440Z,55.55
2016-04-05T07:07:03.459Z,55.35
2016-04-05T07:08:03.447Z,55.26
2016-04-05T07:09:03.466Z,55.45
2016-04-05T07:10:03.453Z,55.74
2016-04-05T07:11:03.455Z,56.22
2016-04-05T07:12:03.489Z,57.06
2016-04-05T07:13:03.477Z,57.92
2016-04-05T07:14:03.495Z,58.75
2016-04-05T07:15:03.513Z,60
2016-04-05T07:16:03.516Z,60.93
2016-04-05T07:17:03.503Z,61.88
2016-04-05T07:18:03.506Z,63
2016-04-05T07:19:03.508Z,63.1
2016-04-05T07:20:03.511Z,62.52
2016-04-05T07:21:03.546Z,62.71
2016-04-05T07:22:03.548Z,61.94
2016-04-05T07:23:03.535Z,61.5
2016-04-05T07:24:03.569Z,60.73
2016-04-05T07:25:03.556Z,60.73
2016-04-05T07:26:03.574Z,61.02
2016-04-05T07:27:03.561Z,60.93
2016-04-05T07:28:03.579Z,60.83
2016-04-05T07:29:03.582Z,60.73
2016-04-05T07:30:03.912Z,59.9
2016-04-05T07:31:03.573Z,58.46
2016-04-05T07:32:03.590Z,56.76
2016-04-05T07:33:03.592Z,55.64
2016-04-05T07:34:03.611Z,55
2016-04-05T07:35:03.614Z,54.8
2016-04-05T07:36:03.617Z,54.8
2016-04-05T07:37:03.619Z,55.19
2016-04-05T07:38:03.638Z,56.79
2016-04-05T07:39:03.640Z,57.18
2016-04-05T07:40:03.627Z,56.89
2016-04-05T07:41:03.661Z,56.6
2016-04-05T07:42:03.648Z,56.6
2016-04-05T07:43:03.667Z,56.31
2016-04-05T07:44:03.653Z,55.45
2016-04-05T07:45:03.672Z,54.04
2016-04-05T07:46:03.659Z,53.11
2016-04-05T07:47:03.677Z,53.2
2016-04-05T07:48:03.711Z,53.11
2016-04-05T07:49:03.699Z,53.2
2016-04-05T07:50:03.717Z,54.06
2016-04-05T07:51:03.735Z,54.9
2016-04-05T07:52:03.722Z,55.93
2016-04-05T07:53:03.725Z,56.79
2016-04-05T07:54:03.743Z,56.7
2016-04-05T07:55:03.730Z,56.7
2016-04-05T07:56:03.765Z,57.06
2016-04-05T07:57:03.751Z,57.63
2016-04-05T07:58:03.770Z,58.87
2016-04-05T07:59:03.741Z,60.28
2016-04-05T08:00:03.759Z,60.83
2016-04-05T08:01:03.762Z,61.21
2016-04-05T08:02:03.811Z,61.11
2016-04-05T08:03:03.862Z,61.6
2016-04-05T08:04:03.879Z,61.98
2016-04-05T08:05:03.789Z,62.07
2016-04-05T08:06:03.807Z,62.07
2016-04-05T08:07:03.809Z,62.26
2016-04-05T08:08:03.828Z,62.46
2016-04-05T08:09:03.815Z,62.93
2016-04-05T08:10:03.833Z,62.55
2016-04-05T08:11:03.836Z,62.65
2016-04-05T08:12:03.822Z,62.07
2016-04-05T08:13:03.842Z,61.88
2016-04-05T08:14:03.844Z,61.5
2016-04-05T08:15:03.847Z,60.76
2016-04-05T08:16:03.849Z,58.75
2016-04-05T08:17:03.852Z,56.96
2016-04-05T08:18:03.855Z,55.74
2016-04-05T08:19:03.872Z,54.23
2016-04-05T08:20:03.892Z,53.39
2016-04-05T08:21:03.878Z,52.43
2016-04-05T08:22:03.880Z,51.21
2016-04-05T08:23:03.883Z,50.82
2016-04-05T08:24:03.901Z,51.21
2016-04-05T08:25:03.905Z,51.02
2016-04-05T08:26:03.891Z,51.69
2016-04-05T08:27:03.910Z,53.39
2016-04-05T08:28:03.913Z,54.9
2016-04-05T08:29:03.931Z,56.41
2016-04-05T08:30:03.934Z,56.86
2016-04-05T08:31:03.937Z,57.43
2016-04-05T08:32:03.954Z,57.24
2016-04-05T08:33:03.957Z,58.2
2016-04-05T08:34:03.960Z,59.13
2016-04-05T08:35:03.948Z,59.8
2016-04-05T08:36:03.950Z,60.76
2016-04-05T08:37:03.968Z,60.76
2016-04-05T08:38:03.970Z,61.31
2016-04-05T08:39:03.989Z,61.11
2016-04-05T08:40:04.008Z,60.83
2016-04-05T08:41:04.010Z,60.57
2016-04-05T08:42:03.998Z,59.61
2016-04-05T08:43:04.016Z,58.78
2016-04-05T08:44:04.018Z,58.11
2016-04-05T08:45:04.021Z,58.04
2016-04-05T08:46:04.039Z,56.79
2016-04-05T08:47:04.042Z,56.51
2016-04-05T08:48:04.029Z,56.6
2016-04-05T08:49:04.033Z,57.46
2016-04-05T08:50:04.050Z,57.85
2016-04-05T08:51:04.083Z,58.3
2016-04-05T08:52:04.086Z,58.42
2016-04-05T08:53:04.057Z,58.78
2016-04-05T08:54:04.077Z,58.11
2016-04-05T08:55:04.079Z,58.11
2016-04-05T08:56:04.082Z,58.59
2016-04-05T08:57:04.116Z,59.55
2016-04-05T08:58:04.102Z,60.41
2016-04-05T08:59:04.090Z,59.06
2016-04-05T09:00:04.093Z,59.06
2016-04-05T09:01:04.095Z,59.61
2016-04-05T09:02:04.113Z,60.57
2016-04-05T09:03:04.116Z,60.67
2016-04-05T09:04:04.135Z,60.96
2016-04-05T09:05:04.121Z,61.02
2016-04-05T09:06:04.124Z,61.43
2016-04-05T09:07:04.126Z,60.96
2016-04-05T09:08:04.129Z,60.67
2016-04-05T09:09:04.148Z,61.05
2016-04-05T09:10:04.186Z,60.76
2016-04-05T09:11:04.175Z,60.38
2016-04-05T09:12:04.177Z,59.71
2016-04-05T09:13:04.164Z,58.97
2016-04-05T09:14:04.197Z,58.2
2016-04-05T09:15:04.185Z,57.34
2016-04-05T09:16:04.188Z,57.08
2016-04-05T09:17:04.205Z,56.89
2016-04-05T09:18:04.208Z,56.79
2016-04-05T09:19:04.196Z,56.7
2016-04-05T09:20:04.214Z,56.51
2016-04-05T09:21:04.247Z,56.98
2016-04-05T09:22:04.219Z,57.08
2016-04-05T09:23:04.238Z,57.18
2016-04-05T09:24:04.240Z,56.98
2016-04-05T09:25:04.258Z,56.79
2016-04-05T09:26:04.245Z,56.51
2016-04-05T09:27:04.249Z,56.6
2016-04-05T09:28:04.251Z,56.02
2016-04-05T09:29:04.285Z,55.1
2016-04-05T09:30:04.256Z,54.9
2016-04-05T09:31:04.384Z,55
2016-04-05T09:32:04.293Z,55.47
2016-04-05T09:33:04.295Z,55.1
2016-04-05T09:34:04.298Z,55
2016-04-05T09:35:04.285Z,55.1
2016-04-05T09:36:04.320Z,54.8
2016-04-05T09:37:04.323Z,54.04
2016-04-05T09:38:04.325Z,54.04
2016-04-05T09:39:04.515Z,54.42
2016-04-05T09:40:04.345Z,54.23
2016-04-05T09:41:04.333Z,54.13
2016-04-05T09:42:04.335Z,55.1
2016-04-05T09:43:04.339Z,55.1
2016-04-05T09:44:04.356Z,55.38
2016-04-05T09:45:04.374Z,55.57
2016-04-05T09:46:04.580Z,56.31
2016-04-05T09:47:04.364Z,56.41
2016-04-05T09:48:04.382Z,56.41
2016-04-05T09:49:04.401Z,56.31
2016-04-05T09:50:04.405Z,56.41
2016-04-05T09:51:04.438Z,56.89
2016-04-05T09:52:04.409Z,56.98
2016-04-05T09:53:04.397Z,56.79
2016-04-05T09:54:04.415Z,56.12
2016-04-05T09:55:04.449Z,55.35
2016-04-05T09:56:04.420Z,54.71
2016-04-05T09:57:04.438Z,54.8
2016-04-05T09:58:04.441Z,54.42
2016-04-05T09:59:04.443Z,53.68
2016-04-05T10:00:04.462Z,53.58
2016-04-05T10:01:04.558Z,54.33
2016-04-05T10:02:04.452Z,54.33
2016-04-05T10:03:04.454Z,55.1
2016-04-05T10:04:04.473Z,55.77
2016-04-05T10:05:04.459Z,56.6
2016-04-05T10:06:04.478Z,56.41
2016-04-05T10:07:04.495Z,56.6
2016-04-05T10:08:04.483Z,56.51
2016-04-05T10:09:04.501Z,56.7
2016-04-05T10:10:04.503Z,56.7
2016-04-05T10:11:04.506Z,56.7
2016-04-05T10:12:04.509Z,56.41
2016-04-05T10:13:04.512Z,56.98
2016-04-05T10:14:04.531Z,56.7
2016-04-05T10:15:04.518Z,56.79
2016-04-05T10:16:04.583Z,55.26
2016-04-05T10:17:04.555Z,55.35
2016-04-05T10:18:04.558Z,55.16
2016-04-05T10:19:04.560Z,55.83
2016-04-05T10:20:04.563Z,56.02
2016-04-05T10:21:04.580Z,55.74
2016-04-05T10:22:04.568Z,55.64
2016-04-05T10:23:04.571Z,55.83
2016-04-05T10:24:04.588Z,55.74
2016-04-05T10:25:04.592Z,55.93
2016-04-05T10:26:04.594Z,55.26
2016-04-05T10:27:04.597Z,54.97
2016-04-05T10:28:04.632Z,53.91
2016-04-05T10:29:04.602Z,54.3
2016-04-05T10:30:04.605Z,53.75
2016-04-05T10:31:04.467Z,53.17
2016-04-05T10:32:04.626Z,53.3
2016-04-05T10:33:04.613Z,52.43
2016-04-05T10:34:04.616Z,52.34
2016-04-05T10:35:04.634Z,52.43
2016-04-05T10:36:04.637Z,51.95
2016-04-05T10:37:04.670Z,51.37
2016-04-05T10:38:04.658Z,50.99
2016-04-05T10:39:04.661Z,51.18
2016-04-05T10:40:04.678Z,50.9
2016-04-05T10:41:04.681Z,50.42
2016-04-05T10:42:04.731Z,50.92
2016-04-05T10:43:04.671Z,51.98
2016-04-05T10:44:04.690Z,50.63
2016-04-05T10:45:04.692Z,49.29
2016-04-05T10:46:04.695Z,49.19
2016-04-05T10:47:04.713Z,48.35
2016-04-05T10:48:04.731Z,49
2016-04-05T10:49:04.719Z,49
2016-04-05T10:50:04.736Z,49.38
2016-04-05T10:51:04.724Z,49.77
2016-04-05T10:52:04.742Z,50.05
2016-04-05T10:53:04.744Z,49
2016-04-05T10:54:04.763Z,49.48
2016-04-05T10:55:04.765Z,50.05
2016-04-05T10:56:04.785Z,49.57
2016-04-05T10:57:04.771Z,49.77
2016-04-05T10:58:04.774Z,50.25
2016-04-05T10:59:04.777Z,50.34
2016-04-05T11:00:04.796Z,50.76
2016-04-05T11:01:04.798Z,50.54
2016-04-05T11:02:04.801Z,49.87
2016-04-05T11:03:04.787Z,49.87
2016-04-05T11:04:04.854Z,49.89
2016-04-05T11:05:04.824Z,50.05
2016-04-05T11:06:04.827Z,50.34
2016-04-05T11:07:04.830Z,49.29
2016-04-05T11:08:04.683Z,49.77
2016-04-05T11:09:04.848Z,50.08
2016-04-05T11:10:04.867Z,49.79
2016-04-05T11:11:04.854Z,48.81
2016-04-05T11:12:04.872Z,48.16
2016-04-05T11:13:04.859Z,48.04
2016-04-05T11:14:04.878Z,47.85
2016-04-05T11:15:04.912Z,48.13
2016-04-05T11:16:04.884Z,47.85
2016-04-05T11:17:04.886Z,47.08
2016-04-05T11:18:04.904Z,47.3
2016-04-05T11:19:04.892Z,47.17
2016-04-05T11:20:04.909Z,47.46
2016-04-05T11:21:04.912Z,47.75
2016-04-05T11:22:04.931Z,48.13
2016-04-05T11:23:04.934Z,47.75
2016-04-05T11:24:04.952Z,46.59
2016-04-05T11:25:04.954Z,45.56
2016-04-05T11:26:04.941Z,44.89
2016-04-05T11:27:05.116Z,44.7
2016-04-05T11:28:04.994Z,45.08
2016-04-05T11:29:04.966Z,45.28
2016-04-05T11:30:05.311Z,46.12
2016-04-05T11:31:04.971Z,46.02
2016-04-05T11:32:04.974Z,45.83
2016-04-05T11:33:04.976Z,45.64
2016-04-05T11:34:05.010Z,45.06
2016-04-05T11:35:05.013Z,45.08
2016-04-05T11:36:05.015Z,45.37
2016-04-05T11:37:04.987Z,45.08
2016-04-05T11:38:05.004Z,45.37
2016-04-05T11:39:05.007Z,45.18
2016-04-05T11:40:05.010Z,45.18
2016-04-05T11:41:05.043Z,45.28
2016-04-05T11:42:05.046Z,45.18
2016-04-05T11:43:05.048Z,45.56
2016-04-05T11:44:05.067Z,45.18
2016-04-05T11:45:05.054Z,45.28
2016-04-05T11:46:05.056Z,45.47
2016-04-05T11:47:05.076Z,45.28
2016-04-05T11:48:05.094Z,45.47
2016-04-05T11:49:05.097Z,45.28
2016-04-05T11:50:05.099Z,45.37
2016-04-05T11:51:05.115Z,45.47
2016-04-05T11:52:05.110Z,45.95
2016-04-05T11:53:05.072Z,46.04
2016-04-05T11:54:05.082Z,45.76
2016-04-05T11:55:05.076Z,46.21
2016-04-05T11:56:05.071Z,46.5
2016-04-05T11:57:05.102Z,47.08
2016-04-05T11:58:05.070Z,46.69
2016-04-05T11:59:05.100Z,47.17
2016-04-05T12:00:05.101Z,47.27
2016-04-05T12:01:05.084Z,47.85
2016-04-05T12:02:05.102Z,47.66
2016-04-05T12:03:05.104Z,47.94
2016-04-05T12:04:05.121Z,48.61
2016-04-05T12:05:05.106Z,48.49
2016-04-05T12:06:05.109Z,49.07
2016-04-05T12:07:05.127Z,48.79
2016-04-05T12:08:04.988Z,48.79
2016-04-05T12:09:05.115Z,48.97
2016-04-05T12:10:05.133Z,48.88
2016-04-05T12:11:05.151Z,49.26
2016-04-05T12:12:05.154Z,49.46
2016-04-05T12:13:05.141Z,49.74
2016-04-05T12:14:05.144Z,49.46
2016-04-05T12:15:05.162Z,49.26
2016-04-05T12:16:05.164Z,49.29
2016-04-05T12:17:05.167Z,49.19
2016-04-05T12:18:05.170Z,48.97
2016-04-05T12:19:05.189Z,49.1
2016-04-05T12:20:05.206Z,49.19
2016-04-05T12:21:05.194Z,49.46
2016-04-05T12:22:05.211Z,49.65
2016-04-05T12:23:05.199Z,49.74
2016-04-05T12:24:05.202Z,49.26
2016-04-05T12:25:05.220Z,49.26
2016-04-05T12:26:05.222Z,49.36
2016-04-05T12:27:05.225Z,49.74
2016-04-05T12:28:05.227Z,49.55
2016-04-05T12:29:05.231Z,49.55
2016-04-05T12:30:05.249Z,49.74
2016-04-05T12:31:05.252Z,49.55
2016-04-05T12:32:05.238Z,49.84
2016-04-05T12:33:05.273Z,50.42
2016-04-05T12:34:05.259Z,50.42
2016-04-05T12:35:05.262Z,50.8
2016-04-05T12:36:05.281Z,50.99
2016-04-05T12:37:05.284Z,51.09
2016-04-05T12:38:05.271Z,51.35
2016-04-05T12:39:05.290Z,51.25
2016-04-05T12:40:05.292Z,51.93
2016-04-05T12:41:05.294Z,51.83
2016-04-05T12:42:05.312Z,51.83
2016-04-05T12:43:05.315Z,51.83
2016-04-05T12:44:05.318Z,51.54
2016-04-05T12:45:05.321Z,51.83
2016-04-05T12:46:05.323Z,51.93
2016-04-05T12:47:05.325Z,51.16
2016-04-05T12:48:05.314Z,51.06
2016-04-05T12:49:05.348Z,51.35
2016-04-05T12:50:05.350Z,51.14
2016-04-05T12:51:05.353Z,51.06
2016-04-05T12:52:05.356Z,50.78
2016-04-05T12:53:05.389Z,50.29
2016-04-05T12:54:05.377Z,50.01
2016-04-05T12:55:05.379Z,49.33
2016-04-05T12:56:05.382Z,49.33